createdAt,value
2023-01-01T00:04:39.308Z,3.53
2023-01-01T00:07:11.572Z,3.13
2023-01-01T00:09:57.845Z,2.87
2023-01-01T00:12:29.297Z,2.80
2023-01-01T00:15:02.952Z,2.47
2023-01-01T00:17:31.365Z,2.10
2023-01-01T00:20:04.737Z,1.90
2023-01-01T00:27:53.423Z,1.90
2023-01-01T00:30:24.875Z,2.47
2023-01-01T00:32:54.780Z,1.90
2023-01-01T00:35:27.800Z,1.87
2023-01-01T00:37:55.807Z,2.47
2023-01-01T00:40:25.110Z,1.70
2023-01-01T00:42:53.912Z,2.33
2023-01-01T00:45:23.041Z,2.60
2023-01-01T00:52:52.667Z,2.40
2023-01-01T00:55:20.085Z,2.17
2023-01-01T00:57:47.438Z,2.47
2023-01-01T01:00:20.790Z,2.10
2023-01-01T01:02:50.151Z,1.97
2023-01-01T01:05:18.772Z,1.77
2023-01-01T01:07:46.189Z,1.90
2023-01-01T01:14:48.754Z,1.80
2023-01-01T01:17:16.142Z,2.30
2023-01-01T01:19:44.778Z,2.37
2023-01-01T01:22:12.852Z,2.80
2023-01-01T01:24:40.177Z,2.33
2023-01-01T01:27:07.541Z,2.87
2023-01-01T01:29:35.324Z,2.93
2023-01-01T01:37:49.603Z,4.47
2023-01-01T01:40:18.325Z,4.33
2023-01-01T01:42:53.110Z,4.20
2023-01-01T01:45:33.326Z,5.50
2023-01-01T01:48:01.426Z,5.77
2023-01-01T01:50:32.247Z,5.77
2023-01-01T01:53:06.731Z,6.83
2023-01-01T02:01:16.042Z,8.10
2023-01-01T02:03:50.164Z,8.60
2023-01-01T02:06:21.849Z,7.70
2023-01-01T02:08:50.562Z,8.47
2023-01-01T02:11:22.189Z,9.97
2023-01-01T02:13:53.071Z,9.63
2023-01-01T02:16:27.883Z,9.20
2023-01-01T02:19:00.262Z,10.43
2023-01-01T02:24:22.047Z,11.17
2023-01-01T02:26:57.479Z,10.93
2023-01-01T02:29:39.321Z,9.90
2023-01-01T02:32:10.053Z,10.10
2023-01-01T02:34:44.904Z,10.53
2023-01-01T02:37:41.351Z,9.97
2023-01-01T02:40:16.276Z,10.60
2023-01-01T02:42:48.212Z,10.50
2023-01-01T02:50:24.076Z,10.53
2023-01-01T02:53:14.751Z,10.03
2023-01-01T02:55:50.144Z,9.77
2023-01-01T02:58:42.482Z,10.07
2023-01-01T03:01:19.952Z,8.83
2023-01-01T03:03:57.281Z,9.37
2023-01-01T03:06:34.344Z,7.40
2023-01-01T03:13:56.625Z,8.57
2023-01-01T03:16:32.071Z,6.47
2023-01-01T03:19:11.742Z,6.80
2023-01-01T03:21:45.028Z,6.63
2023-01-01T03:24:18.114Z,5.93
2023-01-01T03:26:48.458Z,6.43
2023-01-01T03:29:19.712Z,6.47
2023-01-01T03:36:58.723Z,6.83
2023-01-01T03:39:31.017Z,5.43
2023-01-01T03:42:08.413Z,6.13
2023-01-01T03:44:41.487Z,5.67
2023-01-01T03:47:08.982Z,5.20
2023-01-01T03:49:37.420Z,5.67
2023-01-01T03:52:29.787Z,5.97
2023-01-01T04:00:16.765Z,5.10
2023-01-01T04:02:50.339Z,4.70
2023-01-01T04:05:18.683Z,5.23
2023-01-01T04:10:19.402Z,4.97
2023-01-01T04:12:48.876Z,4.30
2023-01-01T04:15:17.633Z,5.03
2023-01-01T04:22:10.904Z,4.30
2023-01-01T04:24:37.918Z,4.17
2023-01-01T04:27:05.357Z,4.60
2023-01-01T04:29:33.005Z,4.77
2023-01-01T04:31:59.954Z,4.03
2023-01-01T04:34:26.898Z,3.63
2023-01-01T04:36:54.242Z,4.63
2023-01-01T04:44:27.752Z,4.00
2023-01-01T04:47:00.393Z,4.97
2023-01-01T04:49:28.502Z,3.57
2023-01-01T04:51:55.362Z,3.43
2023-01-01T04:54:22.281Z,3.40
2023-01-01T04:56:55.281Z,3.60
2023-01-01T04:59:22.444Z,3.43
2023-01-01T05:16:54.736Z,3.10
2023-01-01T05:19:22.722Z,3.17
2023-01-01T05:21:50.485Z,2.67
2023-01-01T05:24:20.960Z,2.37
2023-01-01T05:26:48.479Z,2.53
2023-01-01T05:29:18.429Z,3.47
2023-01-01T05:31:47.258Z,2.67
2023-01-01T05:37:28.102Z,2.63
2023-01-01T05:39:55.700Z,3.00
2023-01-01T05:42:23.083Z,2.67
2023-01-01T05:44:50.663Z,2.90
2023-01-01T05:47:18.300Z,2.93
2023-01-01T05:49:47.976Z,3.30
2023-01-01T05:52:15.764Z,2.53
2023-01-01T05:54:45.804Z,3.30
2023-01-01T06:02:20.747Z,3.33
2023-01-01T06:04:51.642Z,3.23
2023-01-01T06:07:19.155Z,2.70
2023-01-01T06:09:46.596Z,2.63
2023-01-01T06:12:14.113Z,3.33
2023-01-01T06:14:41.891Z,3.20
2023-01-01T06:17:09.311Z,2.60
2023-01-01T06:22:18.092Z,2.70
2023-01-01T06:24:45.260Z,2.60
2023-01-01T06:27:12.307Z,3.17
2023-01-01T06:29:39.678Z,3.00
2023-01-01T06:32:06.874Z,3.43
2023-01-01T06:34:34.589Z,2.90
2023-01-01T06:37:06.845Z,2.97
2023-01-01T06:44:19.786Z,2.77
2023-01-01T06:46:46.791Z,2.97
2023-01-01T06:49:14.497Z,3.00
2023-01-01T06:51:43.098Z,3.30
2023-01-01T06:54:10.938Z,2.83
2023-01-01T06:56:39.186Z,3.27
2023-01-01T06:59:09.303Z,3.50
2023-01-01T07:06:25.980Z,3.40
2023-01-01T07:08:53.922Z,3.00
2023-01-01T07:11:22.366Z,3.07
2023-01-01T07:13:49.467Z,2.73
2023-01-01T07:16:20.185Z,2.90
2023-01-01T07:18:49.872Z,2.87
2023-01-01T07:21:41.008Z,2.90
2023-01-01T07:29:16.559Z,3.73
2023-01-01T07:31:44.537Z,3.03
2023-01-01T07:34:16.397Z,2.50
2023-01-01T07:36:43.911Z,2.50
2023-01-01T07:39:11.172Z,2.90
2023-01-01T07:41:38.470Z,3.10
2023-01-01T07:44:05.927Z,2.97
2023-01-01T07:51:18.005Z,2.53
2023-01-01T07:53:45.420Z,2.53
2023-01-01T07:56:12.579Z,2.60
2023-01-01T07:58:41.727Z,3.27
2023-01-01T08:01:11.517Z,3.53
2023-01-01T08:03:39.251Z,2.90
2023-01-01T08:06:09.102Z,2.87
2023-01-01T08:13:14.333Z,3.10
2023-01-01T08:15:41.910Z,2.50
2023-01-01T08:18:10.208Z,3.20
2023-01-01T08:20:37.452Z,3.10
2023-01-01T08:23:07.479Z,3.00
2023-01-01T08:25:35.196Z,2.37
2023-01-01T08:28:02.745Z,2.40
2023-01-01T08:34:58.182Z,2.60
2023-01-01T08:37:25.898Z,2.43
2023-01-01T08:39:54.391Z,3.30
2023-01-01T08:42:21.857Z,2.73
2023-01-01T08:44:49.052Z,2.33
2023-01-01T08:47:18.980Z,2.93
2023-01-01T08:49:46.333Z,2.77
2023-01-01T08:57:01.865Z,3.27
2023-01-01T08:59:32.366Z,2.73
2023-01-01T09:02:00.316Z,2.37
2023-01-01T09:04:28.032Z,2.47
2023-01-01T09:06:55.970Z,2.17
2023-01-01T09:09:30.865Z,2.23
2023-01-01T09:12:03.591Z,2.23
2023-01-01T09:19:57.177Z,2.00
2023-01-01T09:22:24.777Z,2.87
2023-01-01T09:24:52.262Z,2.43
2023-01-01T09:27:19.660Z,3.10
2023-01-01T09:29:47.109Z,2.23
2023-01-01T09:32:14.737Z,2.40
2023-01-01T09:34:46.021Z,2.20
2023-01-01T09:40:05.626Z,2.50
2023-01-01T09:42:41.828Z,2.20
2023-01-01T09:45:23.136Z,2.37
2023-01-01T09:47:54.578Z,2.10
2023-01-01T09:50:24.451Z,2.73
2023-01-01T09:52:59.237Z,2.57
2023-01-01T09:55:46.880Z,2.67
2023-01-01T09:58:28.712Z,2.57
2023-01-01T10:03:47.241Z,2.70
2023-01-01T10:06:22.133Z,2.90
2023-01-01T10:09:05.801Z,2.60
2023-01-01T10:11:42.635Z,2.20
2023-01-01T10:14:20.279Z,2.80
2023-01-01T10:16:55.206Z,2.47
2023-01-01T10:19:30.991Z,2.23
2023-01-01T10:27:43.600Z,2.60
2023-01-01T10:30:21.351Z,2.17
2023-01-01T10:32:52.890Z,2.60
2023-01-01T10:35:30.558Z,2.47
2023-01-01T10:37:59.936Z,2.67
2023-01-01T10:40:29.652Z,2.20
2023-01-01T10:43:04.491Z,3.00
2023-01-01T10:45:37.309Z,1.93
2023-01-01T10:53:31.651Z,2.40
2023-01-01T10:56:05.200Z,2.70
2023-01-01T10:58:41.641Z,2.03
2023-01-01T11:01:11.994Z,2.30
2023-01-01T11:03:54.891Z,2.83
2023-01-01T11:06:24.949Z,1.87
2023-01-01T11:14:00.182Z,2.20
2023-01-01T11:16:28.974Z,3.03
2023-01-01T11:19:03.538Z,2.40
2023-01-01T11:21:32.706Z,2.20
2023-01-01T11:24:22.854Z,2.23
2023-01-01T11:26:55.172Z,2.40
2023-01-01T11:29:29.645Z,2.30
2023-01-01T11:34:41.227Z,2.43
2023-01-01T11:37:18.103Z,1.93
2023-01-01T11:39:49.607Z,2.80
2023-01-01T11:42:20.591Z,2.20
2023-01-01T11:44:53.806Z,2.10
2023-01-01T11:47:30.391Z,2.30
2023-01-01T11:56:04.941Z,1.90
2023-01-01T11:58:42.089Z,2.63
2023-01-01T12:01:18.464Z,1.93
2023-01-01T12:03:54.421Z,2.47
2023-01-01T12:06:28.878Z,3.10
2023-01-01T12:09:16.275Z,2.50
2023-01-01T12:17:21.202Z,1.87
2023-01-01T12:20:09.729Z,2.07
2023-01-01T12:22:52.469Z,3.43
2023-01-01T12:25:25.680Z,2.47
2023-01-01T12:28:07.731Z,2.90
2023-01-01T12:30:42.655Z,1.90
2023-01-01T12:41:29.811Z,1.93
2023-01-01T12:44:08.562Z,2.93
2023-01-01T12:46:49.264Z,2.60
2023-01-01T12:49:38.189Z,2.20
2023-01-01T12:52:20.214Z,2.40
2023-01-01T12:55:16.496Z,1.90
2023-01-01T13:02:57.158Z,2.30
2023-01-01T13:05:36.828Z,2.30
2023-01-01T13:08:16.840Z,2.60
2023-01-01T13:11:13.454Z,2.97
2023-01-01T13:13:49.355Z,1.60
2023-01-01T13:16:53.981Z,2.30
2023-01-01T13:19:40.998Z,2.33
2023-01-01T13:31:04.086Z,2.13
2023-01-01T13:33:53.551Z,2.83
2023-01-01T13:36:39.542Z,2.03
2023-01-01T13:39:14.739Z,2.20
2023-01-01T13:42:05.871Z,2.40
2023-01-01T13:44:53.143Z,2.70
2023-01-01T13:47:57.838Z,2.23
2023-01-01T13:54:12.141Z,2.30
2023-01-01T13:56:56.891Z,2.80
2023-01-01T14:00:03.391Z,3.03
2023-01-01T14:02:45.670Z,1.83
2023-01-01T14:05:31.820Z,2.20
2023-01-01T14:08:23.831Z,3.17
2023-01-01T14:22:03.088Z,2.33
2023-01-01T14:25:09.278Z,2.63
2023-01-01T14:28:07.451Z,3.13
2023-01-01T14:30:55.166Z,2.77
2023-01-01T14:34:17.504Z,2.83
2023-01-01T14:37:26.121Z,2.73
2023-01-01T14:42:49.306Z,2.27
2023-01-01T14:45:27.600Z,3.40
2023-01-01T14:48:23.911Z,2.53
2023-01-01T14:50:59.340Z,2.53
2023-01-01T14:53:50.010Z,2.70
2023-01-01T14:56:38.221Z,2.80
2023-01-01T15:08:03.394Z,3.00
2023-01-01T15:10:42.151Z,3.17
2023-01-01T15:13:21.864Z,2.60
2023-01-01T15:35:51.892Z,2.60
2023-01-01T15:54:30.214Z,2.97
2023-01-01T17:42:08.211Z,3.20
2023-01-01T17:44:48.820Z,3.00
2023-01-01T17:47:20.798Z,3.63
2023-01-01T17:49:51.600Z,2.93
2023-01-01T17:52:28.402Z,3.27
2023-01-01T17:55:01.033Z,3.23
2023-01-01T17:57:36.331Z,3.27
2023-01-01T18:05:16.724Z,2.97
2023-01-01T18:07:49.509Z,3.07
2023-01-01T18:10:21.857Z,3.20
2023-01-01T18:12:55.521Z,3.23
2023-01-01T18:15:30.929Z,2.77
2023-01-01T18:18:02.429Z,3.03
2023-01-01T18:20:37.297Z,2.27
2023-01-01T18:28:19.357Z,2.70
2023-01-01T18:30:52.728Z,2.40
2023-01-01T18:33:23.841Z,2.67
2023-01-01T18:36:05.755Z,2.80
2023-01-01T18:38:37.708Z,2.50
2023-01-01T18:41:25.649Z,2.70
2023-01-01T18:44:02.131Z,3.93
2023-01-01T18:52:23.319Z,3.40
2023-01-01T18:55:16.494Z,2.80
2023-01-01T18:57:55.478Z,3.53
2023-01-01T19:00:30.068Z,2.77
2023-01-01T19:03:06.026Z,3.87
2023-01-01T19:05:40.186Z,3.40
2023-01-01T19:08:52.411Z,3.97
2023-01-01T19:16:33.972Z,3.50
2023-01-01T19:19:15.757Z,3.57
2023-01-01T19:21:51.036Z,3.50
2023-01-01T19:24:24.501Z,3.63
2023-01-01T19:27:00.473Z,3.30
2023-01-01T19:29:33.107Z,3.10
2023-01-01T19:32:05.868Z,3.40
2023-01-01T19:37:47.140Z,3.33
2023-01-01T19:40:19.540Z,3.50
2023-01-01T19:42:55.097Z,3.77
2023-01-01T19:45:25.238Z,3.33
2023-01-01T19:47:57.258Z,3.57
2023-01-01T19:50:28.350Z,3.57
2023-01-01T19:53:16.464Z,3.03
2023-01-01T19:55:52.848Z,3.50
2023-01-01T19:58:22.688Z,3.67
2023-01-01T20:05:44.918Z,3.93
2023-01-01T20:08:42.160Z,3.30
2023-01-01T20:11:12.940Z,3.90
2023-01-01T20:13:44.901Z,4.60
2023-01-01T20:16:20.197Z,3.03
2023-01-01T20:18:53.854Z,4.23
2023-01-01T20:21:44.930Z,3.27
2023-01-01T20:24:26.679Z,2.90
2023-01-01T20:32:49.070Z,3.27
2023-01-01T20:35:43.210Z,2.97
2023-01-01T20:38:16.239Z,3.23
2023-01-01T20:41:23.629Z,2.90
2023-01-01T20:43:56.656Z,3.03
2023-01-01T20:46:30.373Z,2.80
2023-01-01T20:49:06.291Z,2.63
2023-01-01T20:51:42.971Z,3.57
2023-01-01T20:57:04.737Z,3.73
2023-01-01T20:59:37.838Z,2.80
2023-01-01T21:02:08.266Z,3.13
2023-01-01T21:04:42.136Z,3.40
2023-01-01T21:07:17.241Z,2.53
2023-01-01T21:09:47.182Z,2.80
2023-01-01T21:12:20.402Z,2.30
2023-01-01T21:20:24.789Z,3.10
2023-01-01T21:23:00.591Z,2.40
2023-01-01T21:28:21.065Z,1.83
2023-01-01T21:30:54.920Z,2.03
2023-01-01T21:33:32.633Z,2.63
2023-01-01T21:36:07.933Z,2.77
2023-01-01T21:44:18.059Z,2.57
2023-01-01T21:47:01.528Z,2.50
2023-01-01T21:49:39.306Z,2.13
2023-01-01T21:52:16.060Z,2.27
2023-01-01T21:54:47.211Z,2.43
2023-01-01T21:57:19.503Z,1.70
2023-01-01T21:59:49.860Z,1.97
2023-01-01T22:05:44.230Z,1.93
2023-01-01T22:08:32.553Z,3.20
2023-01-01T22:11:18.590Z,2.73
2023-01-01T22:13:47.958Z,1.93
2023-01-01T22:16:32.595Z,1.97
2023-01-01T22:19:04.671Z,1.90
2023-01-01T22:21:37.426Z,2.30
2023-01-01T22:24:26.860Z,2.93
2023-01-01T22:27:01.129Z,2.00
2023-01-01T22:35:25.228Z,2.70
2023-01-01T22:37:56.006Z,2.00
2023-01-01T22:40:44.770Z,2.13
2023-01-01T22:43:34.252Z,2.10
2023-01-01T22:46:23.495Z,2.43
2023-01-01T22:49:00.448Z,1.63
2023-01-01T22:52:11.612Z,2.20
2023-01-01T22:54:50.892Z,2.93
2023-01-01T23:03:07.024Z,2.27
2023-01-01T23:05:36.192Z,2.50
2023-01-01T23:08:07.071Z,2.90
2023-01-01T23:10:35.329Z,2.23
2023-01-01T23:13:23.353Z,2.67
2023-01-01T23:16:02.751Z,2.57
2023-01-01T23:18:33.261Z,2.13
2023-01-01T23:24:04.992Z,3.13
2023-01-01T23:26:33.907Z,2.10
2023-01-01T23:29:02.820Z,2.33
2023-01-01T23:31:34.449Z,2.50
2023-01-01T23:34:02.660Z,1.97
2023-01-01T23:36:30.090Z,1.90
2023-01-01T23:38:57.693Z,2.20
2023-01-01T23:41:26.622Z,2.50
2023-01-01T23:49:04.220Z,2.10
2023-01-01T23:51:32.381Z,3.30
2023-01-01T23:53:59.751Z,2.33
2023-01-01T23:56:27.126Z,2.20
2023-01-01T23:58:58.013Z,2.97
